Time;durP1;ratioP1;P1;durP2;ratioP2;P2;SDS_P1;SDS_P2;PMS_P1;PMS_P2;Temp;Humidity;BMP_temperature;BMP_pressure;BME280_temperature;BME280_humidity;BME280_pressure;Samples;Min_cycle;Max_cycle;Signal;HPM_P1;HPM_P2
2022/04/02 00:01:25;;;;;;;5.13;3.55;;;4.80;69.90;;;;;;5072232;28;20448;-45
2022/04/02 00:03:54;;;;;;;5.63;4.10;;;4.80;69.80;;;;;;5073901;22;20059;-48
2022/04/02 00:06:21;;;;;;;5.28;3.80;;;4.80;70.00;;;;;;5059692;28;20553;-45
2022/04/02 00:08:48;;;;;;;6.60;4.72;;;4.80;70.10;;;;;;5068228;28;20098;-46
2022/04/02 00:11:15;;;;;;;7.53;4.80;;;4.80;70.10;;;;;;5061431;28;20049;-43
2022/04/02 00:13:42;;;;;;;5.25;4.07;;;4.80;70.00;;;;;;5052836;28;20490;-41
2022/04/02 00:16:09;;;;;;;5.20;4.10;;;4.80;70.00;;;;;;5052969;28;20045;-45
2022/04/02 00:18:36;;;;;;;5.95;4.70;;;4.80;69.90;;;;;;5065079;28;20040;-42
2022/04/02 00:21:03;;;;;;;7.63;4.10;;;4.80;69.90;;;;;;5072533;28;20446;-47
2022/04/02 00:23:43;;;;;;;6.03;3.88;;;4.80;69.90;;;;;;5061942;28;20040;-42
2022/04/02 00:26:21;;;;;;;6.00;3.17;;;4.80;69.90;;;;;;5055886;28;20120;-45
2022/04/02 00:28:49;;;;;;;5.50;4.03;;;4.80;69.70;;;;;;5071150;28;20036;-42
2022/04/02 00:31:26;;;;;;;5.15;3.67;;;4.80;69.80;;;;;;5071933;28;20072;-43
2022/04/02 00:34:08;;;;;;;5.45;3.40;;;4.80;69.60;;;;;;5034008;28;20660;-46
2022/04/02 00:36:37;;;;;;;5.63;3.67;;;4.80;69.80;;;;;;5064393;28;20032;-45
2022/04/02 00:39:08;;;;;;;5.50;3.45;;;4.80;69.70;;;;;;5070690;28;20055;-43
2022/04/02 00:41:35;;;;;;;5.85;3.95;;;4.80;69.80;;;;;;5060434;28;20440;-43
2022/04/02 00:44:14;;;;;;;7.07;3.72;;;4.80;69.80;;;;;;5057662;28;20047;-45
2022/04/02 00:46:42;;;;;;;5.72;4.10;;;4.80;69.90;;;;;;5065290;28;20040;-44
2022/04/02 00:49:13;;;;;;;4.97;3.93;;;4.80;69.70;;;;;;5072142;28;20064;-42
2022/04/02 00:51:42;;;;;;;6.47;4.00;;;4.80;69.90;;;;;;5060371;28;20383;-47
2022/04/02 00:54:13;;;;;;;6.13;4.05;;;4.80;69.90;;;;;;5065629;28;20565;-44
2022/04/02 00:56:40;;;;;;;5.90;4.45;;;4.80;70.10;;;;;;5070636;28;20070;-45
2022/04/02 00:59:09;;;;;;;6.93;4.88;;;4.80;70.20;;;;;;5071857;28;20075;-45
2022/04/02 01:01:37;;;;;;;6.03;4.35;;;4.80;70.20;;;;;;5053811;28;20539;-46
2022/04/02 01:04:07;;;;;;;8.13;4.68;;;4.80;70.20;;;;;;5064219;28;20117;-45
2022/04/02 01:06:43;;;;;;;5.95;4.32;;;4.80;70.20;;;;;;5069993;28;20044;-45
2022/04/02 01:09:15;;;;;;;8.73;4.63;;;4.80;70.20;;;;;;5058596;28;20047;-44
2022/04/02 01:11:48;;;;;;;6.00;4.40;;;4.70;70.00;;;;;;5051316;28;20055;-44
2022/04/02 01:14:20;;;;;;;8.15;5.63;;;4.70;70.10;;;;;;5069549;28;20303;-42
2022/04/02 01:16:52;;;;;;;5.72;4.25;;;4.70;70.30;;;;;;5052673;28;20055;-47
2022/04/02 01:19:22;;;;;;;4.97;3.97;;;4.70;70.20;;;;;;5048871;28;20083;-45
2022/04/02 01:22:02;;;;;;;6.20;4.40;;;4.70;70.40;;;;;;5059392;28;20118;-44
2022/04/02 01:24:39;;;;;;;7.28;5.65;;;4.70;70.50;;;;;;5071533;28;20057;-43
2022/04/02 01:27:10;;;;;;;5.70;4.30;;;4.60;70.70;;;;;;5069274;28;20083;-46
2022/04/02 01:29:47;;;;;;;7.43;4.10;;;4.60;70.70;;;;;;5052666;28;20047;-47
2022/04/02 01:32:17;;;;;;;8.15;4.15;;;4.60;70.90;;;;;;5069040;28;20041;-45
2022/04/02 01:34:51;;;;;;;8.77;4.68;;;4.60;70.90;;;;;;5069851;28;20051;-46
2022/04/02 01:37:22;;;;;;;6.03;3.88;;;4.60;70.80;;;;;;5055539;28;20041;-47
2022/04/02 01:39:58;;;;;;;4.75;3.92;;;4.60;71.00;;;;;;5041019;28;20042;-44
2022/04/02 01:42:36;;;;;;;6.93;3.67;;;4.50;70.80;;;;;;5064321;28;20036;-47
2022/04/02 01:45:08;;;;;;;5.37;3.67;;;4.50;70.90;;;;;;5060701;28;20056;-46
2022/04/02 01:47:51;;;;;;;6.40;3.55;;;4.50;70.90;;;;;;5049848;28;20495;-46
2022/04/02 01:50:19;;;;;;;4.25;3.55;;;4.50;70.80;;;;;;5049102;28;20041;-46
2022/04/02 01:52:49;;;;;;;6.18;3.28;;;4.50;71.10;;;;;;5049318;28;20040;-44
2022/04/02 01:55:18;;;;;;;4.43;3.28;;;4.50;71.00;;;;;;5049037;28;20447;-46
2022/04/02 01:57:52;;;;;;;4.72;3.28;;;4.50;71.00;;;;;;5038394;28;20056;-46
2022/04/02 02:00:31;;;;;;;4.03;3.25;;;4.50;71.10;;;;;;5045692;28;20135;-45
2022/04/02 02:03:01;;;;;;;7.03;3.90;;;4.50;70.90;;;;;;5068492;28;20431;-46
2022/04/02 02:05:30;;;;;;;3.72;3.30;;;4.50;71.20;;;;;;5055664;28;20041;-44
2022/04/02 02:07:57;;;;;;;5.03;3.92;;;4.40;71.00;;;;;;5058101;28;20039;-44
2022/04/02 02:10:35;;;;;;;4.95;3.20;;;4.40;71.20;;;;;;5050119;28;20128;-43
2022/04/02 02:13:23;;;;;;;6.18;3.35;;;4.40;70.80;;;;;;5054924;28;20053;-46
2022/04/02 02:15:52;;;;;;;4.75;3.45;;;4.40;70.80;;;;;;5045694;28;20082;-41
2022/04/02 02:18:19;;;;;;;5.20;3.00;;;4.40;70.90;;;;;;5054874;28;20044;-42
2022/04/02 02:20:50;;;;;;;9.35;3.22;;;4.30;70.70;;;;;;5068627;28;20419;-47
2022/04/02 02:23:17;;;;;;;4.80;3.00;;;4.40;70.70;;;;;;5068065;28;20127;-44
2022/04/02 02:25:44;;;;;;;5.50;3.00;;;4.30;70.70;;;;;;5056680;28;20038;-42
2022/04/02 02:28:11;;;;;;;5.82;3.85;;;4.30;70.80;;;;;;5064652;28;20040;-45
2022/04/02 02:30:41;;;;;;;4.47;3.38;;;4.30;70.70;;;;;;5068480;28;20048;-45
2022/04/02 02:35:59;;;;;;;4.85;2.67;;;4.30;70.80;;;;;;5045613;28;20073;-42
2022/04/02 02:38:40;;;;;;;4.85;3.30;;;4.30;70.80;;;;;;5060100;28;20055;-45
2022/04/02 02:41:18;;;;;;;10.55;3.40;;;4.30;70.90;;;;;;5068736;28;20529;-43
2022/04/02 02:43:54;;;;;;;4.07;3.45;;;4.30;71.00;;;;;;5068402;28;20041;-45
2022/04/02 02:46:39;;;;;;;5.35;2.35;;;4.30;71.00;;;;;;5042830;28;20041;-45
2022/04/02 02:49:18;;;;;;;4.72;3.28;;;4.30;70.70;;;;;;5067199;28;20098;-47
2022/04/02 02:51:54;;;;;;;4.03;3.42;;;4.30;70.80;;;;;;5067989;28;20565;-42
2022/04/02 02:54:26;;;;;;;4.70;2.80;;;4.30;70.60;;;;;;5043656;28;20047;-45
2022/04/02 02:56:59;;;;;;;4.43;2.97;;;4.30;70.50;;;;;;5058052;28;20043;-43
2022/04/02 02:59:27;;;;;;;3.92;2.85;;;4.30;70.40;;;;;;5052825;28;20413;-46
2022/04/02 03:01:55;;;;;;;3.45;2.47;;;4.30;70.30;;;;;;5068419;28;20128;-46
2022/04/02 03:04:24;;;;;;;7.43;3.42;;;4.30;70.20;;;;;;5056758;28;20044;-44
2022/04/02 03:07:00;;;;;;;4.95;3.10;;;4.30;70.20;;;;;;5059766;28;20036;-47
2022/04/02 03:09:30;;;;;;;6.10;2.72;;;4.30;70.00;;;;;;5056392;28;20618;-42
2022/04/02 03:11:57;;;;;;;5.13;2.90;;;4.30;69.90;;;;;;5055527;28;20040;-43
2022/04/02 03:14:29;;;;;;;;;;;4.40;69.80;;;;;;5057089;28;20061;-45
2022/04/02 03:16:56;;;;;;;3.38;2.05;;;4.40;70.10;;;;;;5052362;28;20301;-46
2022/04/02 03:19:26;;;;;;;3.47;2.65;;;4.40;69.40;;;;;;5054384;28;20036;-43
2022/04/02 03:21:55;;;;;;;7.55;2.47;;;4.40;69.30;;;;;;5067921;28;20032;-44
2022/04/02 03:24:24;;;;;;;3.80;2.22;;;4.40;69.20;;;;;;5057188;28;20041;-43
2022/04/02 03:26:54;;;;;;;3.03;2.28;;;4.40;69.20;;;;;;5072213;28;20151;-43
2022/04/02 03:29:32;;;;;;;5.20;2.78;;;4.50;69.20;;;;;;5048956;28;20057;-47
2022/04/02 03:32:06;;;;;;;3.83;2.65;;;4.50;68.90;;;;;;5043138;28;20042;-44
2022/04/02 03:34:36;;;;;;;4.47;2.25;;;4.50;68.80;;;;;;5070524;28;20128;-43
2022/04/02 03:37:05;;;;;;;2.60;2.05;;;4.50;68.80;;;;;;5072467;28;20055;-43
2022/04/02 03:39:41;;;;;;;5.22;2.45;;;4.50;68.60;;;;;;5072232;28;20135;-45
2022/04/02 03:42:14;;;;;;;2.63;2.20;;;4.50;68.50;;;;;;5058504;28;20619;-43
2022/04/02 03:44:42;;;;;;;2.40;2.20;;;4.60;68.40;;;;;;5068865;28;20040;-42
2022/04/02 03:47:13;;;;;;;4.07;2.22;;;4.60;68.40;;;;;;5071122;28;20044;-42
2022/04/02 03:49:47;;;;;;;3.80;2.28;;;4.60;68.30;;;;;;5063766;28;20049;-45
2022/04/02 03:52:18;;;;;;;3.72;2.22;;;4.60;68.10;;;;;;5061390;28;20556;-46
2022/04/02 03:54:49;;;;;;;3.78;2.10;;;4.60;68.00;;;;;;5071692;28;20396;-49
2022/04/02 03:57:18;;;;;;;2.30;2.10;;;4.70;67.80;;;;;;5071302;28;20048;-47
2022/04/02 03:59:54;;;;;;;2.45;1.92;;;4.60;67.60;;;;;;5058860;28;20045;-47
2022/04/02 04:02:23;;;;;;;5.40;2.22;;;4.70;67.60;;;;;;5069363;28;20050;-47
2022/04/02 04:04:52;;;;;;;3.70;2.15;;;4.70;67.40;;;;;;5070846;28;20075;-47
2022/04/02 04:07:20;;;;;;;3.60;2.22;;;4.70;67.30;;;;;;5064573;28;20041;-47
2022/04/02 04:09:47;;;;;;;2.72;2.05;;;4.70;67.10;;;;;;5041471;28;20567;-46
2022/04/02 04:12:14;;;;;;;2.33;1.67;;;4.70;66.80;;;;;;5056721;28;20056;-47
2022/04/02 04:14:45;;;;;;;2.15;1.70;;;4.80;66.80;;;;;;5071426;28;20040;-44
2022/04/02 04:17:14;;;;;;;3.78;1.83;;;4.80;66.50;;;;;;5049815;28;20128;-46
2022/04/02 04:19:47;;;;;;;3.42;2.20;;;4.80;66.10;;;;;;5051600;28;20098;-47
2022/04/02 04:22:16;;;;;;;3.35;1.70;;;4.80;66.10;;;;;;5071181;28;20059;-46
2022/04/02 04:24:49;;;;;;;2.33;1.92;;;4.80;65.50;;;;;;5071518;28;20408;-43
2022/04/02 04:27:22;;;;;;;3.22;2.00;;;4.80;65.30;;;;;;5063614;28;20086;-46
2022/04/02 04:29:51;;;;;;;2.55;1.77;;;4.90;64.90;;;;;;5059312;28;20404;-43
2022/04/02 04:32:20;;;;;;;2.63;1.30;;;4.90;64.70;;;;;;5070190;28;20411;-42
2022/04/02 04:34:48;;;;;;;1.95;1.58;;;4.90;64.70;;;;;;5069649;28;20538;-45
2022/04/02 04:37:22;;;;;;;2.78;1.77;;;4.90;64.40;;;;;;5062596;28;20045;-44
2022/04/02 04:39:51;;;;;;;4.30;2.00;;;4.90;64.20;;;;;;5062336;28;20094;-46
2022/04/02 04:42:18;;;;;;;4.75;1.58;;;5.00;64.10;;;;;;5070438;28;20125;-46
2022/04/02 04:44:45;;;;;;;3.30;2.50;;;5.00;64.00;;;;;;5065819;28;20511;-43
2022/04/02 04:47:21;;;;;;;2.28;1.40;;;5.00;63.90;;;;;;5048323;28;20055;-43
2022/04/02 04:49:54;;;;;;;3.60;1.50;;;5.00;63.70;;;;;;5068714;28;20439;-47
2022/04/02 04:52:28;;;;;;;2.08;1.60;;;5.00;63.30;;;;;;5046977;28;20045;-45
2022/04/02 04:55:01;;;;;;;1.88;1.20;;;5.00;63.40;;;;;;5049263;28;20136;-44
2022/04/02 04:57:34;;;;;;;1.92;1.42;;;5.00;63.50;;;;;;5061418;28;20037;-43
2022/04/02 05:00:15;;;;;;;2.08;1.33;;;5.10;63.40;;;;;;5071314;28;20503;-46
2022/04/02 05:02:47;;;;;;;1.17;1.02;;;5.00;63.40;;;;;;5070489;28;20048;-47
2022/04/02 05:05:33;;;;;;;1.77;1.25;;;5.10;63.50;;;;;;5049093;28;20102;-44
2022/04/02 05:08:08;;;;;;;2.20;1.50;;;5.10;63.30;;;;;;5064549;28;20455;-42
2022/04/02 05:10:42;;;;;;;3.33;1.55;;;5.00;63.00;;;;;;5066060;28;20120;-44
2022/04/02 05:13:16;;;;;;;2.83;1.70;;;5.00;63.00;;;;;;5059090;28;20131;-44
2022/04/02 05:15:47;;;;;;;2.22;1.20;;;5.00;62.60;;;;;;5042361;28;20069;-43
2022/04/02 05:18:16;;;;;;;2.88;1.70;;;5.00;62.60;;;;;;5061706;28;20080;-47
2022/04/02 05:20:44;;;;;;;2.38;1.35;;;5.00;62.60;;;;;;5070834;28;20045;-43
2022/04/02 05:23:18;;;;;;;3.67;1.65;;;5.00;62.40;;;;;;5065462;28;20041;-46
2022/04/02 05:25:49;;;;;;;3.17;1.73;;;5.00;62.40;;;;;;5053184;28;20045;-45
2022/04/02 05:28:17;;;;;;;1.40;1.20;;;5.00;62.30;;;;;;5069653;28;20504;-46
2022/04/02 05:30:46;;;;;;;1.40;1.20;;;5.00;62.20;;;;;;5070850;28;20036;-43
2022/04/02 05:33:13;;;;;;;2.30;1.48;;;5.00;62.00;;;;;;5064251;28;20055;-42
2022/04/02 05:35:59;;;;;;;4.90;1.95;;;5.00;62.10;;;;;;5064985;28;20090;-43
2022/04/02 05:38:30;;;;;;;2.60;1.30;;;5.00;62.00;;;;;;5070356;28;20079;-43
2022/04/02 05:40:57;;;;;;;1.50;1.40;;;5.00;61.70;;;;;;5070633;28;20040;-47
2022/04/02 05:43:26;;;;;;;2.25;1.30;;;5.00;61.80;;;;;;5053352;28;20044;-43
2022/04/02 05:45:55;;;;;;;2.22;1.67;;;5.00;61.70;;;;;;5060834;28;20036;-43
2022/04/02 05:48:24;;;;;;;1.75;1.48;;;5.00;61.50;;;;;;5069975;28;20151;-42
2022/04/02 05:50:52;;;;;;;3.88;1.45;;;5.00;61.50;;;;;;5071837;28;20044;-43
2022/04/02 05:53:21;;;;;;;2.22;1.25;;;5.00;61.60;;;;;;5052890;28;20098;-42
2022/04/02 05:55:48;;;;;;;1.98;1.40;;;5.00;61.30;;;;;;5068144;28;20044;-42
2022/04/02 05:58:15;;;;;;;2.15;0.88;;;5.00;61.50;;;;;;5071484;28;20041;-43
2022/04/02 06:00:49;;;;;;;4.18;1.48;;;5.00;61.30;;;;;;5066218;28;20044;-42
2022/04/02 06:03:20;;;;;;;3.38;1.60;;;5.10;61.40;;;;;;5059037;28;20108;-43
2022/04/02 06:05:51;;;;;;;2.03;1.65;;;5.10;61.30;;;;;;5068761;28;20040;-44
2022/04/02 06:08:24;;;;;;;1.38;1.27;;;5.10;61.20;;;;;;5067822;28;20141;-48
2022/04/02 06:10:51;;;;;;;1.55;1.35;;;5.10;61.10;;;;;;5061883;28;20562;-45
2022/04/02 06:13:18;;;;;;;2.03;1.48;;;5.10;61.00;;;;;;5070583;28;20048;-46
2022/04/02 06:15:47;;;;;;;3.75;1.77;;;5.20;61.10;;;;;;5065666;28;20059;-51
2022/04/02 06:18:18;;;;;;;1.85;1.50;;;5.20;61.20;;;;;;5064440;28;20041;-47
2022/04/02 06:20:45;;;;;;;3.42;1.52;;;5.20;61.10;;;;;;5060041;28;20573;-49
2022/04/02 06:23:13;;;;;;;2.30;1.42;;;5.30;61.10;;;;;;5064816;28;20094;-49
2022/04/02 06:25:44;;;;;;;2.33;1.70;;;5.30;60.90;;;;;;5075151;28;20041;-48
2022/04/02 06:28:11;;;;;;;4.03;1.75;;;5.30;60.90;;;;;;5067769;28;20051;-51
2022/04/02 06:30:38;;;;;;;2.28;1.58;;;5.40;61.10;;;;;;5062925;28;20606;-52
2022/04/02 06:33:08;;;;;;;2.10;1.90;;;5.40;60.80;;;;;;5064320;28;20094;-50
2022/04/02 06:35:40;;;;;;;3.30;1.73;;;5.40;60.50;;;;;;5060658;28;20152;-50
2022/04/02 06:38:07;;;;;;;2.58;1.52;;;5.50;60.50;;;;;;5065050;28;20044;-57
2022/04/02 06:40:34;;;;;;;2.38;1.60;;;5.50;60.40;;;;;;5055842;28;20041;-47
2022/04/02 06:43:01;;;;;;;2.72;1.83;;;5.60;60.30;;;;;;5062603;28;21423;-50
2022/04/02 06:45:39;;;;;;;4.38;2.13;;;5.60;59.90;;;;;;5062215;28;20057;-46
2022/04/02 06:48:06;;;;;;;5.28;2.20;;;5.70;60.10;;;;;;5059015;28;20497;-51
2022/04/02 06:50:33;;;;;;;2.03;1.80;;;5.70;59.90;;;;;;5056827;28;20041;-49
2022/04/02 06:53:09;;;;;;;2.38;1.88;;;5.70;59.90;;;;;;5063267;28;20037;-47
2022/04/02 06:55:40;;;;;;;6.25;2.53;;;5.80;59.90;;;;;;5062845;28;20571;-50
2022/04/02 06:58:38;;;;;;;2.60;2.08;;;5.80;59.70;;;;;;5057524;28;20043;-46
2022/04/02 07:01:08;;;;;;;3.97;1.83;;;5.80;59.10;;;;;;5063925;28;20071;-49
2022/04/02 07:03:37;;;;;;;5.03;2.20;;;5.90;59.40;;;;;;5042956;28;20059;-46
2022/04/02 07:06:07;;;;;;;3.20;2.03;;;5.90;59.10;;;;;;5028386;28;20037;-48
2022/04/02 07:08:37;;;;;;;3.95;1.70;;;6.00;59.10;;;;;;5048881;28;20041;-48
2022/04/02 07:11:05;;;;;;;3.20;2.03;;;6.00;59.10;;;;;;5040627;28;20067;-46
2022/04/02 07:13:32;;;;;;;3.30;1.80;;;6.00;58.90;;;;;;5058390;28;20045;-48
2022/04/02 07:16:03;;;;;;;3.47;1.98;;;6.10;58.90;;;;;;5032471;28;20068;-49
2022/04/02 07:18:32;;;;;;;2.25;1.70;;;6.10;58.50;;;;;;5056851;28;20045;-49
2022/04/02 07:21:01;;;;;;;3.35;2.33;;;6.20;58.30;;;;;;5024368;28;20037;-46
2022/04/02 07:23:29;;;;;;;4.75;1.88;;;6.20;58.10;;;;;;5053165;28;20093;-45
2022/04/02 07:25:56;;;;;;;2.30;1.90;;;6.30;58.30;;;;;;5028112;28;20045;-46
2022/04/02 07:28:25;;;;;;;2.72;1.95;;;6.30;58.50;;;;;;5044477;28;20037;-45
2022/04/02 07:30:52;;;;;;;2.67;2.03;;;6.30;58.10;;;;;;5026025;28;20038;-49
2022/04/02 07:33:22;;;;;;;2.50;1.80;;;6.40;58.40;;;;;;5044105;28;20040;-45
2022/04/02 07:36:05;;;;;;;3.58;2.05;;;6.30;58.90;;;;;;5022144;28;20786;-45
2022/04/02 07:38:39;;;;;;;3.35;2.05;;;6.50;57.70;;;;;;5045486;28;20055;-47
2022/04/02 07:41:17;;;;;;;3.72;2.13;;;6.50;57.70;;;;;;5024798;28;20099;-50
2022/04/02 07:43:52;;;;;;;4.38;2.53;;;6.60;57.00;;;;;;5038210;28;20041;-47
2022/04/02 07:46:23;;;;;;;3.47;1.95;;;6.60;57.30;;;;;;5027521;28;20111;-48
2022/04/02 07:48:50;;;;;;;4.75;3.08;;;6.60;57.60;;;;;;5037705;28;20064;-45
2022/04/02 07:51:28;;;;;;;3.75;2.08;;;6.70;57.60;;;;;;5045687;28;20041;-47
2022/04/02 07:54:00;;;;;;;12.40;7.68;;;6.70;57.40;;;;;;5037579;28;20067;-47
2022/04/02 07:56:35;;;;;;;11.23;9.05;;;6.80;57.40;;;;;;5037573;28;20037;-49
2022/04/02 07:59:09;;;;;;;5.40;5.00;;;6.80;56.90;;;;;;5039203;28;20455;-47
2022/04/02 08:01:36;;;;;;;3.70;2.35;;;6.80;56.90;;;;;;5033506;28;20041;-46
2022/04/02 08:04:04;;;;;;;2.30;2.10;;;6.90;57.00;;;;;;5036742;28;20496;-48
2022/04/02 08:06:34;;;;;;;2.58;2.00;;;6.90;56.50;;;;;;5032127;28;20064;-46
2022/04/02 08:09:02;;;;;;;2.78;2.28;;;6.90;56.30;;;;;;5028670;28;20110;-44
2022/04/02 08:11:38;;;;;;;3.15;2.15;;;7.00;56.90;;;;;;5041007;28;20042;-47
2022/04/02 08:14:07;;;;;;;2.20;1.90;;;7.00;56.40;;;;;;5036506;28;20520;-44
2022/04/02 08:16:42;;;;;;;2.03;1.50;;;7.10;56.60;;;;;;5036418;28;20045;-46
2022/04/02 08:19:12;;;;;;;2.30;2.10;;;7.10;56.10;;;;;;5034664;28;20063;-44
2022/04/02 08:21:39;;;;;;;4.10;2.22;;;7.20;56.30;;;;;;5033479;28;20103;-46
2022/04/02 08:24:06;;;;;;;2.83;1.88;;;7.20;56.30;;;;;;5032333;28;20071;-44
2022/04/02 08:27:03;;;;;;;3.38;2.30;;;7.30;56.30;;;;;;5041511;28;20057;-48
2022/04/02 08:29:52;;;;;;;2.08;1.70;;;7.30;55.50;;;;;;5017104;28;20040;-48
2022/04/02 08:32:30;;;;;;;2.38;2.17;;;7.30;55.10;;;;;;5033121;28;20041;-48
2022/04/02 08:35:08;;;;;;;2.45;1.70;;;7.40;55.30;;;;;;5026118;28;20057;-47
2022/04/02 08:37:53;;;;;;;2.40;2.13;;;7.40;55.50;;;;;;5036076;28;20080;-45
2022/04/02 08:40:44;;;;;;;3.03;2.00;;;7.50;55.10;;;;;;5022980;28;20056;-51
2022/04/02 08:43:20;;;;;;;1.92;1.77;;;7.50;54.70;;;;;;5033698;28;20568;-49
2022/04/02 08:46:34;;;;;;;2.95;2.00;;;7.50;55.00;;;;;;5030478;28;20045;-45
2022/04/02 08:49:41;;;;;;;2.42;1.92;;;7.60;54.20;;;;;;5015040;28;20152;-46
2022/04/02 08:52:15;;;;;;;6.13;2.17;;;7.60;55.60;;;;;;5026526;28;20045;-48
2022/04/02 08:54:53;;;;;;;4.18;2.00;;;7.80;55.00;;;;;;5030708;28;20053;-48
2022/04/02 08:57:35;;;;;;;5.60;2.50;;;7.70;54.50;;;;;;5030000;28;20045;-49
2022/04/02 09:00:02;;;;;;;5.28;3.15;;;7.80;54.30;;;;;;5028304;28;20048;-51
2022/04/02 09:02:58;;;;;;;4.82;2.63;;;7.80;54.60;;;;;;5040058;28;20524;-47
2022/04/02 09:05:50;;;;;;;5.43;2.60;;;7.80;53.70;;;;;;5021181;28;20045;-47
2022/04/02 09:08:58;;;;;;;2.88;2.28;;;7.90;54.20;;;;;;5038332;28;20053;-51
2022/04/02 09:11:49;;;;;;;2.60;2.05;;;7.90;54.00;;;;;;5019559;28;20459;-48
2022/04/02 09:14:32;;;;;;;4.20;2.13;;;8.00;54.40;;;;;;5033591;28;20052;-49
2022/04/02 09:17:19;;;;;;;2.70;2.20;;;8.10;54.40;;;;;;5031169;28;20104;-48
2022/04/02 09:20:00;;;;;;;3.55;2.15;;;8.20;54.60;;;;;;5028020;28;20037;-49
2022/04/02 09:22:32;;;;;;;4.03;2.27;;;8.20;53.90;;;;;;5039902;28;20094;-49
2022/04/02 09:25:19;;;;;;;2.40;2.20;;;8.30;54.10;;;;;;5029495;28;20818;-47
2022/04/02 09:28:27;;;;;;;3.55;2.45;;;8.30;53.90;;;;;;5033931;28;20042;-47
2022/04/02 09:31:30;;;;;;;2.03;1.80;;;8.40;53.90;;;;;;4999688;28;20053;-47
2022/04/02 09:34:12;;;;;;;;;;;8.50;53.80;;;;;;5011376;28;20120;-46
2022/04/02 09:37:20;;;;;;;4.30;2.53;;;8.60;54.90;;;;;;5033747;28;19932;-50
2022/04/02 09:40:03;;;;;;;4.22;2.65;;;8.70;53.40;;;;;;5027615;28;20034;-47
2022/04/02 09:42:37;;;;;;;3.60;3.17;;;8.70;53.90;;;;;;5033690;28;20048;-46
2022/04/02 09:45:13;;;;;;;3.03;2.72;;;8.70;53.30;;;;;;5020732;28;20455;-50
2022/04/02 09:47:58;;;;;;;4.32;3.08;;;8.70;53.30;;;;;;5035839;28;20609;-48
2022/04/02 09:50:28;;;;;;;4.70;3.72;;;8.80;53.30;;;;;;5021497;28;20045;-47
2022/04/02 09:53:14;;;;;;;3.80;2.83;;;8.70;52.90;;;;;;5038707;28;20527;-46
2022/04/02 09:56:08;;;;;;;4.90;2.65;;;8.70;53.40;;;;;;5025515;28;20120;-45
2022/04/02 09:59:17;;;;;;;4.28;3.55;;;8.70;53.00;;;;;;5044703;28;20527;-51
2022/04/02 10:02:06;;;;;;;3.80;3.00;;;8.70;52.40;;;;;;5030294;28;20053;-48
2022/04/02 10:04:42;;;;;;;3.40;3.10;;;8.60;52.20;;;;;;5022453;28;20038;-48
2022/04/02 10:07:37;;;;;;;5.53;3.25;;;8.50;53.00;;;;;;5031052;28;20037;-45
2022/04/02 10:10:04;;;;;;;7.15;4.10;;;8.50;53.30;;;;;;5030474;28;20416;-47
2022/04/02 10:12:33;;;;;;;7.22;3.63;;;8.50;53.80;;;;;;5037908;28;20397;-48
2022/04/02 10:15:03;;;;;;;5.07;3.65;;;8.40;54.10;;;;;;5023132;28;20044;-45
2022/04/02 10:17:32;;;;;;;4.03;3.20;;;8.50;54.30;;;;;;5041021;28;20049;-47
2022/04/02 10:20:04;;;;;;;4.10;3.72;;;8.50;54.30;;;;;;5034181;28;20049;-46
2022/04/02 10:22:43;;;;;;;4.18;3.40;;;8.50;54.40;;;;;;5033332;28;20064;-47
2022/04/02 10:25:15;;;;;;;5.10;4.30;;;8.60;54.00;;;;;;5027265;28;20147;-47
2022/04/02 10:27:45;;;;;;;4.10;3.67;;;8.60;54.30;;;;;;5035904;28;20036;-48
2022/04/02 10:30:21;;;;;;;4.82;3.33;;;8.70;54.20;;;;;;5028492;28;20696;-45
2022/04/02 10:35:49;;;;;;;5.45;4.85;;;8.90;53.50;;;;;;5026927;28;20658;-45
2022/04/02 10:38:36;;;;;;;6.60;4.68;;;9.00;53.70;;;;;;5030602;28;20041;-47
2022/04/02 10:41:16;;;;;;;6.28;3.80;;;9.00;52.50;;;;;;5026505;28;20064;-45
2022/04/02 10:43:50;;;;;;;4.95;3.40;;;9.10;52.50;;;;;;5038848;28;20055;-45
2022/04/02 10:46:22;;;;;;;4.68;3.15;;;9.10;52.80;;;;;;5047650;28;20067;-46
2022/04/02 10:49:05;;;;;;;5.32;3.60;;;9.10;53.00;;;;;;5048792;28;20037;-46
2022/04/02 10:51:39;;;;;;;6.18;3.90;;;9.10;52.70;;;;;;5045062;28;20628;-51
2022/04/02 10:54:13;;;;;;;4.15;3.50;;;9.10;52.80;;;;;;5048363;28;20163;-50
2022/04/02 10:56:50;;;;;;;6.93;4.07;;;9.10;53.20;;;;;;5051640;28;20041;-46
2022/04/02 10:59:21;;;;;;;5.68;3.25;;;9.10;53.50;;;;;;5053485;28;20099;-50
2022/04/02 11:01:52;;;;;;;6.35;4.45;;;9.10;54.00;;;;;;5043932;28;20044;-50
2022/04/02 11:04:40;;;;;;;6.90;4.35;;;9.10;54.30;;;;;;5050650;28;20049;-48
2022/04/02 11:07:10;;;;;;;4.40;3.90;;;9.10;54.50;;;;;;5047661;28;20075;-44
2022/04/02 11:09:41;;;;;;;7.10;4.72;;;9.20;55.00;;;;;;5005546;28;20073;-51
2022/04/02 11:12:15;;;;;;;6.35;4.10;;;9.20;55.30;;;;;;5039142;28;20052;-49
2022/04/02 11:14:50;;;;;;;6.40;4.88;;;9.30;55.00;;;;;;5033391;28;20036;-47
2022/04/02 11:17:32;;;;;;;6.10;3.92;;;9.40;55.30;;;;;;5047443;28;20177;-48
2022/04/02 11:20:04;;;;;;;5.20;3.20;;;9.40;55.00;;;;;;5024947;28;20076;-49
2022/04/02 11:22:54;;;;;;;6.63;5.18;;;9.60;55.10;;;;;;5044278;28;20033;-50
2022/04/02 11:25:28;;;;;;;4.53;3.83;;;9.60;54.60;;;;;;5038722;28;20049;-48
2022/04/02 11:28:12;;;;;;;4.78;3.83;;;9.70;54.10;;;;;;5036646;28;20048;-49
2022/04/02 11:30:53;;;;;;;4.45;3.75;;;9.70;53.70;;;;;;5043438;28;20106;-47
2022/04/02 11:33:26;;;;;;;8.02;3.88;;;9.60;53.90;;;;;;5034952;28;20088;-49
2022/04/02 11:36:07;;;;;;;4.13;3.72;;;9.60;54.40;;;;;;5032415;28;20501;-50
2022/04/02 11:38:42;;;;;;;4.60;4.07;;;9.50;54.70;;;;;;5026420;28;20311;-48
2022/04/02 11:41:27;;;;;;;5.47;3.80;;;9.40;55.40;;;;;;5040511;28;20052;-48
2022/04/02 11:44:17;;;;;;;5.60;3.47;;;9.40;55.30;;;;;;5032974;28;20036;-49
2022/04/02 11:46:52;;;;;;;7.78;4.47;;;9.30;55.80;;;;;;5033059;28;20049;-47
2022/04/02 11:49:31;;;;;;;5.65;3.55;;;9.30;55.80;;;;;;5031182;28;20049;-50
2022/04/02 11:52:07;;;;;;;7.30;3.50;;;9.20;56.00;;;;;;5049106;28;20558;-43
2022/04/02 11:54:44;;;;;;;4.25;3.58;;;9.20;57.10;;;;;;5035540;28;20610;-50
2022/04/02 11:57:32;;;;;;;4.43;4.03;;;9.30;56.70;;;;;;5039306;28;20159;-48
2022/04/02 12:00:05;;;;;;;5.05;3.53;;;9.40;56.40;;;;;;5032247;28;20112;-46
2022/04/02 12:02:48;;;;;;;3.63;3.28;;;9.50;56.30;;;;;;5040828;28;20049;-45
2022/04/02 12:05:40;;;;;;;4.18;3.47;;;9.50;55.40;;;;;;5028441;28;20107;-46
2022/04/02 12:08:07;;;;;;;6.10;4.10;;;9.60;54.70;;;;;;5027684;28;20042;-51
2022/04/02 12:10:50;;;;;;;4.72;3.47;;;9.60;55.90;;;;;;5042774;28;20060;-53
2022/04/02 12:13:18;;;;;;;4.85;3.55;;;9.60;54.80;;;;;;5026216;28;20141;-48
2022/04/02 12:16:03;;;;;;;4.18;3.72;;;9.50;54.70;;;;;;5042323;28;20106;-49
2022/04/02 12:18:33;;;;;;;5.30;4.18;;;9.50;55.00;;;;;;5025916;28;20060;-53
2022/04/02 12:21:07;;;;;;;5.07;3.45;;;9.50;54.90;;;;;;5046048;28;20777;-52
2022/04/02 12:23:37;;;;;;;6.43;4.47;;;9.50;55.00;;;;;;5029972;28;20049;-51
2022/04/02 12:26:08;;;;;;;5.53;3.83;;;9.50;55.40;;;;;;5040308;28;20128;-53
2022/04/02 12:28:45;;;;;;;4.32;3.50;;;9.60;55.30;;;;;;5026969;28;20040;-46
2022/04/02 12:31:15;;;;;;;3.50;3.20;;;9.70;54.80;;;;;;5046460;28;20052;-51
2022/04/02 12:33:52;;;;;;;5.85;3.78;;;9.80;55.40;;;;;;5026609;28;20563;-49
2022/04/02 12:36:40;;;;;;;4.63;3.88;;;9.90;54.50;;;;;;5038485;28;20467;-50
2022/04/02 12:39:08;;;;;;;3.70;3.38;;;10.10;54.30;;;;;;5029692;28;20037;-50
2022/04/02 12:41:48;;;;;;;4.30;3.90;;;10.20;55.10;;;;;;5030757;28;20052;-51
2022/04/02 12:44:47;;;;;;;4.50;3.40;;;10.40;54.40;;;;;;5023019;28;20040;-49
2022/04/02 12:47:17;;;;;;;4.65;3.67;;;10.60;54.10;;;;;;5046524;28;20053;-48
2022/04/02 12:49:48;;;;;;;4.05;3.63;;;10.80;54.10;;;;;;5020011;28;20049;-52
2022/04/02 12:52:17;;;;;;;4.05;3.63;;;11.00;53.70;;;;;;5039495;28;20029;-50
2022/04/02 12:54:52;;;;;;;4.30;3.63;;;11.20;53.30;;;;;;5027800;28;20798;-53
2022/04/02 12:57:22;;;;;;;3.72;3.33;;;11.40;52.50;;;;;;5038506;28;20045;-47
2022/04/02 12:59:56;;;;;;;3.63;2.85;;;11.60;52.70;;;;;;5026623;28;20099;-50
2022/04/02 13:02:25;;;;;;;5.72;3.63;;;11.60;51.50;;;;;;5033213;28;20049;-56
2022/04/02 13:05:13;;;;;;;4.80;3.90;;;11.80;52.00;;;;;;5030595;28;20051;-47
2022/04/02 13:08:02;;;;;;;3.75;3.25;;;11.90;50.80;;;;;;5034142;28;20123;-57
2022/04/02 13:10:40;;;;;;;4.20;3.80;;;12.10;49.80;;;;;;5055408;28;20063;-52
2022/04/02 13:13:32;;;;;;;6.40;4.10;;;12.20;50.30;;;;;;5021855;28;20053;-51
2022/04/02 13:16:06;;;;;;;6.18;4.13;;;12.30;50.20;;;;;;5043273;28;20037;-51
2022/04/02 13:21:41;;;;;;;5.13;3.53;;;12.60;49.80;;;;;;5028503;28;20045;-49
2022/04/02 13:24:34;;;;;;;4.40;4.00;;;12.60;49.00;;;;;;5028042;28;20095;-51
2022/04/02 13:27:33;;;;;;;4.57;3.83;;;12.60;48.80;;;;;;5038142;28;20052;-50
2022/04/02 13:30:20;;;;;;;3.40;3.03;;;12.60;48.00;;;;;;5027595;28;20053;-53
2022/04/02 13:32:55;;;;;;;4.63;3.35;;;12.40;47.50;;;;;;5033784;28;20037;-53
2022/04/02 13:35:42;;;;;;;5.78;3.55;;;12.30;47.90;;;;;;5037533;28;20075;-50
2022/04/02 13:38:28;;;;;;;4.95;3.63;;;12.10;47.00;;;;;;5031530;28;20049;-50
2022/04/02 13:41:01;;;;;;;4.85;3.25;;;11.80;47.30;;;;;;5040972;28;20520;-49
2022/04/02 13:43:51;;;;;;;4.25;3.85;;;11.70;47.70;;;;;;5033411;28;20049;-51
2022/04/02 13:46:55;;;;;;;3.85;3.22;;;11.50;47.30;;;;;;5035381;28;20542;-51